WetterOnline ( http://www.wetteronline.de )

Wetter aktuell Lahnau

Aktuelles Wetter: Gießen (195m)

6-stündlich | Neueste Meldungen
Ortszeit Temperatur Wetter
Do, 21.02. 1:00 2.5° C bedeckt
Mi, 20.02. 19:00 7.1° C bewölkt
Mi, 20.02. 13:00 7.1° C bedeckt
Mi, 20.02. 7:00 -1.4° C bedeckt
Mi, 20.02. 1:00 0.1° C leicht bewölkt
Di, 19.02. 19:00 5.2° C bewölkt
Di, 19.02. 13:00 7.6° C wolkig
Di, 19.02. 7:00 -0.6° C bewölkt
Ortszeit Temperatur Wetter
Do, 21.02. 5:00 0.4° C wolkenlos
Do, 21.02. 4:50 0.4° C wolkenlos
Do, 21.02. 4:40 0.3° C fast wolkenlos
Do, 21.02. 4:30 0.5° C wolkig
Do, 21.02. 4:20 0.5° C wolkig
Do, 21.02. 4:10 0.6° C bewölkt
Do, 21.02. 4:00 0.8° C bewölkt
Do, 21.02. 3:30 1.3° C leicht bewölkt
Do, 21.02. 3:00 1.6° C fast wolkenlos
Do, 21.02. 2:30 2.0° C wolkenlos
Do, 21.02. 2:00 2.3° C wolkenlos
Ortszeit Relative Feuchte Sichtweite
Do, 21.02. 1:00 93% 18 km
Mi, 20.02. 19:00 71% 35 km
Mi, 20.02. 13:00 75% 20 km
Mi, 20.02. 7:00 99% 14 km
Mi, 20.02. 1:00 92% 23 km
Di, 19.02. 19:00 74% 40 km
Di, 19.02. 13:00 81% 23 km
Di, 19.02. 7:00 97% 16 km
Ortszeit Relative Feuchte Sichtweite
Do, 21.02. 5:00 99% 9 km
Do, 21.02. 4:50 99% -
Do, 21.02. 4:40 99% -
Do, 21.02. 4:30 100% 9 km
Do, 21.02. 4:20 100% -
Do, 21.02. 4:10 98% -
Do, 21.02. 4:00 96% 12 km
Do, 21.02. 3:30 96% 13 km
Do, 21.02. 3:00 96% 14 km
Do, 21.02. 2:30 94% 17 km
Do, 21.02. 2:00 94% 19 km
Ortszeit Niederschlagsmenge Niederschlagsart
Do, 21.02. 1:00 0.0 l/m2 in 6 Std. -
Mi, 20.02. 19:00 0.0 l/m2 in 12 Std. -
Mi, 20.02. 13:00 0.0 l/m2 in 6 Std. -
Mi, 20.02. 7:00 0.0 l/m2 in 12 Std. -
Mi, 20.02. 1:00 0.0 l/m2 in 6 Std. -
Di, 19.02. 19:00 0.7 l/m2 in 12 Std. -
Di, 19.02. 13:00 0.7 l/m2 in 6 Std. Regen
Di, 19.02. 7:00 0.0 l/m2 in 12 Std. -
Ortszeit Niederschlagsmenge Niederschlagsart
Do, 21.02. 5:00 0.0 l/m2 in 1 Std. -
Do, 21.02. 4:50 keine Meldung -
Do, 21.02. 4:40 keine Meldung -
Do, 21.02. 4:30 0.0 l/m2 in 1 Std. -
Do, 21.02. 4:20 keine Meldung -
Do, 21.02. 4:10 keine Meldung -
Do, 21.02. 4:00 0.0 l/m2 in 1 Std. -
Do, 21.02. 3:30 0.0 l/m2 in 1 Std. -
Do, 21.02. 3:00 0.0 l/m2 in 1 Std. -
Do, 21.02. 2:30 0.0 l/m2 in 1 Std. -
Do, 21.02. 2:00 0.0 l/m2 in 1 Std. -
Ortszeit Stärke Spitze Richtung
km/h Bft. km/h Grad Sektor
Do, 21.02. 1:00 4 1 11 220° SW
Mi, 20.02. 19:00 4 1 32 220° SW
Mi, 20.02. 13:00 7 2 11 220° SW
Mi, 20.02. 7:00 0 0 7 - -
Mi, 20.02. 1:00 4 1 11 130° SO
Di, 19.02. 19:00 7 2 36 230° SW
Di, 19.02. 13:00 11 2 18 180° S
Di, 19.02. 7:00 4 1 7 250° W
Ortszeit Stärke Spitze Richtung
km/h Bft. km/h Grad Sektor
Do, 21.02. 5:00 6 1 7 210° SW
Do, 21.02. 4:50 6 1 - 210° SW
Do, 21.02. 4:40 4 1 - 230° SW
Do, 21.02. 4:30 4 1 7 160° S
Do, 21.02. 4:20 4 1 - 160° S
Do, 21.02. 4:10 6 1 - 210° SW
Do, 21.02. 4:00 6 1 7 200° S
Do, 21.02. 3:30 7 2 7 190° S
Do, 21.02. 3:00 7 2 7 190° S
Do, 21.02. 2:30 4 1 7 200° S
Do, 21.02. 2:00 4 1 7 170° S
Ortszeit Untergrenze Bedeckung Gattung
total tief tief mittel hoch
Do, 21.02. 1:00 5100 m 8/8 8/8 - - -
Mi, 20.02. 19:00 2400 m 7/8 7/8 - - -
Mi, 20.02. 13:00 3600 m 8/8 8/8 - - -
Mi, 20.02. 7:00 3600 m 8/8 8/8 - - -
Mi, 20.02. 1:00 6300 m 4/8 2/8 - - -
Di, 19.02. 19:00 1440 m 7/8 7/8 - - -
Di, 19.02. 13:00 780 m 5/8 5/8 - - -
Di, 19.02. 7:00 750 m 8/8 7/8 - - -
Ortszeit Bedeckungsgrad in Achtel und Wolkenuntergrenze
Do, 21.02. 5:00 keine Wolken
Do, 21.02. 4:50 keine Wolken
Do, 21.02. 4:40 1(2700m)
Do, 21.02. 4:30 5(2700m)
Do, 21.02. 4:20 5(2700m)
Do, 21.02. 4:10 7(2700m)
Do, 21.02. 4:00 7(2400m)
Do, 21.02. 3:30 3(2400m)
Do, 21.02. 3:00 1(2400m)
Do, 21.02. 2:30 keine Wolken
Do, 21.02. 2:00 keine Wolken
Ortszeit Luftdruck NN (hPa) Tendenz (hPa in 3 Std.)
Do, 21.02. 1:00 1027 + 0,6
Mi, 20.02. 19:00 1025 + 0,6
Mi, 20.02. 13:00 1025 + 0,1
Mi, 20.02. 7:00 1024 + 0,5
Mi, 20.02. 1:00 1024 + 0,7
Di, 19.02. 19:00 1021 + 0,9
Di, 19.02. 13:00 1020 + 0,2
Di, 19.02. 7:00 1019 + 0,4
Ortszeit Luftdruck NN (hPa) Tendenz (hPa in 3 Std.)
Do, 21.02. 5:00 1028 + 0,7
Do, 21.02. 4:50 1028 keine Meldung
Do, 21.02. 4:40 1028 keine Meldung
Do, 21.02. 4:30 1028 + 0,4
Do, 21.02. 4:20 1028 keine Meldung
Do, 21.02. 4:10 1028 keine Meldung
Do, 21.02. 4:00 1027 + 0,4
Do, 21.02. 3:30 1028 + 0,6
Do, 21.02. 3:00 1028 + 0,8
Do, 21.02. 2:30 1027 + 0,7
Do, 21.02. 2:00 1027 + 0,4
Ortszeit Schneehöhe (cm)
Do, 21.02. 1:00 0
Mi, 20.02. 19:00 0
Mi, 20.02. 13:00 0
Mi, 20.02. 7:00 0
Mi, 20.02. 1:00 0
Di, 19.02. 19:00 0
Di, 19.02. 13:00 0
Di, 19.02. 7:00 0
Ortszeit Schneehöhe (cm)
Do, 21.02. 5:00 0
Do, 21.02. 4:50 0
Do, 21.02. 4:40 0
Do, 21.02. 4:30 0
Do, 21.02. 4:20 0
Do, 21.02. 4:10 0
Do, 21.02. 4:00 0
Do, 21.02. 3:30 0
Do, 21.02. 3:00 0
Do, 21.02. 2:30 0
Do, 21.02. 2:00 0
Link zu dieser Seite / Seite empfehlen

Das Wetter in ...